createdAt,value
2022-11-08T00:02:09.793Z,9.60
2022-11-08T00:04:36.552Z,9.50
2022-11-08T00:07:21.738Z,9.50
2022-11-08T00:10:07.228Z,9.40
2022-11-08T00:12:52.872Z,9.30
2022-11-08T00:15:19.632Z,9.30
2022-11-08T00:17:46.301Z,9.20
2022-11-08T00:20:13.154Z,9.30
2022-11-08T00:22:39.862Z,9.30
2022-11-08T00:25:07.015Z,9.30
2022-11-08T00:27:33.665Z,9.20
2022-11-08T00:30:00.307Z,9.20
2022-11-08T00:32:27.441Z,9.20
2022-11-08T00:34:54.160Z,9.20
2022-11-08T00:37:22.483Z,9.20
2022-11-08T00:39:49.433Z,9.20
2022-11-08T00:42:16.200Z,9.20
2022-11-08T00:44:42.845Z,9.20
2022-11-08T00:47:09.532Z,9.10
2022-11-08T00:49:36.226Z,9.00
2022-11-08T00:52:03.039Z,9.00
2022-11-08T00:54:29.692Z,8.90
2022-11-08T00:56:56.314Z,8.80
2022-11-08T00:59:22.976Z,8.80
2022-11-08T01:01:49.854Z,8.80
2022-11-08T01:04:19.395Z,8.90
2022-11-08T01:06:46.255Z,8.90
2022-11-08T01:09:13.570Z,8.80
2022-11-08T01:11:45.201Z,8.90
2022-11-08T01:14:12.857Z,8.80
2022-11-08T01:16:39.547Z,8.80
2022-11-08T01:19:06.593Z,8.70
2022-11-08T01:21:33.250Z,8.70
2022-11-08T01:24:00.032Z,8.60
2022-11-08T01:26:28.689Z,8.60
2022-11-08T01:28:56.728Z,8.50
2022-11-08T01:31:26.399Z,8.40
2022-11-08T01:33:53.841Z,8.40
2022-11-08T01:36:23.532Z,8.30
2022-11-08T01:38:50.433Z,8.20
2022-11-08T01:41:18.609Z,8.10
2022-11-08T01:43:50.584Z,8.10
2022-11-08T01:46:20.076Z,8.00
2022-11-08T01:48:57.673Z,8.00
2022-11-08T01:51:33.465Z,8.00
2022-11-08T01:54:05.885Z,7.90
2022-11-08T01:56:32.735Z,7.90
2022-11-08T01:59:02.287Z,7.90
2022-11-08T02:01:29.028Z,7.90
2022-11-08T02:03:55.794Z,7.90
2022-11-08T02:06:22.483Z,7.90
2022-11-08T02:08:49.486Z,7.90
2022-11-08T02:11:18.252Z,7.90
2022-11-08T02:13:44.878Z,7.90
2022-11-08T02:16:13.857Z,7.90
2022-11-08T02:18:42.532Z,8.00
2022-11-08T02:21:11.618Z,8.00
2022-11-08T02:23:45.562Z,8.00
2022-11-08T02:26:12.606Z,7.90
2022-11-08T02:28:49.441Z,7.90
2022-11-08T02:31:18.068Z,7.90
2022-11-08T02:33:45.470Z,7.90
2022-11-08T02:36:20.102Z,7.80
2022-11-08T02:38:54.327Z,7.80
2022-11-08T02:41:21.326Z,7.70
2022-11-08T02:43:48.065Z,7.70
2022-11-08T02:46:14.780Z,7.60
2022-11-08T02:48:41.426Z,7.60
2022-11-08T02:51:08.295Z,7.50
2022-11-08T02:53:35.730Z,7.50
2022-11-08T02:56:02.498Z,7.40
2022-11-08T02:58:29.141Z,7.30
2022-11-08T03:00:55.838Z,7.20
2022-11-08T03:03:22.549Z,7.10
2022-11-08T03:05:49.238Z,7.10
2022-11-08T03:08:16.344Z,7.00
2022-11-08T03:10:43.363Z,7.00
2022-11-08T03:13:10.124Z,7.00
2022-11-08T03:15:36.769Z,6.90
2022-11-08T03:18:03.517Z,6.90
2022-11-08T03:20:33.083Z,6.90
2022-11-08T03:23:02.292Z,6.80
2022-11-08T03:25:29.360Z,6.80
2022-11-08T03:27:56.446Z,6.80
2022-11-08T03:30:23.107Z,6.80
2022-11-08T03:32:50.140Z,6.80
2022-11-08T03:35:17.225Z,6.70
2022-11-08T03:37:53.289Z,6.60
2022-11-08T03:40:20.562Z,6.60
2022-11-08T03:42:47.809Z,6.60
2022-11-08T03:45:17.782Z,6.60
2022-11-08T03:47:46.289Z,6.50
2022-11-08T03:50:14.521Z,6.50
2022-11-08T03:52:49.243Z,6.50
2022-11-08T03:55:17.560Z,6.40
2022-11-08T03:57:46.560Z,6.40
2022-11-08T04:00:15.356Z,6.30
2022-11-08T04:02:42.307Z,6.30
2022-11-08T04:05:10.678Z,6.30
2022-11-08T04:07:37.601Z,6.30
2022-11-08T04:10:06.041Z,6.20
2022-11-08T04:12:51.661Z,6.20
2022-11-08T04:15:21.364Z,6.20
2022-11-08T04:18:09.268Z,6.20
2022-11-08T04:21:06.253Z,6.20
2022-11-08T04:23:34.255Z,6.10
2022-11-08T04:26:04.118Z,6.10
2022-11-08T04:28:32.935Z,6.00
2022-11-08T04:31:21.056Z,6.00
2022-11-08T04:33:47.673Z,6.00
2022-11-08T04:36:16.262Z,5.90
2022-11-08T04:38:43.513Z,5.90
2022-11-08T04:41:12.683Z,5.80
2022-11-08T04:43:39.512Z,5.80
2022-11-08T04:46:08.478Z,5.80
2022-11-08T04:48:35.341Z,5.70
2022-11-08T04:51:13.869Z,5.70
2022-11-08T04:53:41.081Z,5.70
2022-11-08T04:56:15.382Z,5.60
2022-11-08T04:58:44.388Z,5.60
2022-11-08T05:01:12.655Z,5.60
2022-11-08T05:03:39.326Z,5.50
2022-11-08T05:06:20.999Z,5.50
2022-11-08T05:08:47.741Z,5.50
2022-11-08T05:11:17.487Z,5.40
2022-11-08T05:13:44.453Z,5.30
2022-11-08T05:16:14.536Z,5.30
2022-11-08T05:18:42.225Z,5.30
2022-11-08T05:21:30.458Z,5.30
2022-11-08T05:23:58.370Z,5.40
2022-11-08T05:26:25.622Z,5.30
2022-11-08T05:28:52.643Z,5.30
2022-11-08T05:31:19.356Z,5.20
2022-11-08T05:33:46.581Z,5.20
2022-11-08T05:36:16.096Z,5.30
2022-11-08T05:38:43.171Z,5.20
2022-11-08T05:41:18.389Z,5.20
2022-11-08T05:43:50.495Z,5.20
2022-11-08T05:46:18.681Z,5.30
2022-11-08T05:48:49.278Z,5.30
2022-11-08T05:51:17.579Z,5.30
2022-11-08T05:53:44.294Z,5.30
2022-11-08T05:56:10.937Z,5.30
2022-11-08T05:58:37.675Z,5.30
2022-11-08T06:01:07.150Z,5.30
2022-11-08T06:03:34.669Z,5.40
2022-11-08T06:06:03.328Z,5.50
2022-11-08T06:08:30.072Z,5.50
2022-11-08T06:11:05.898Z,5.50
2022-11-08T06:13:33.834Z,5.50
2022-11-08T06:16:02.666Z,5.40
2022-11-08T06:18:30.546Z,5.30
2022-11-08T06:21:01.534Z,5.30
2022-11-08T06:23:28.595Z,5.20
2022-11-08T06:25:55.310Z,5.20
2022-11-08T06:28:22.229Z,5.30
2022-11-08T06:30:49.264Z,5.30
2022-11-08T06:33:16.604Z,5.40
2022-11-08T06:35:43.609Z,5.40
2022-11-08T06:38:10.265Z,5.50
2022-11-08T06:40:40.079Z,5.50
2022-11-08T06:43:06.973Z,5.50
2022-11-08T06:45:33.603Z,5.50
2022-11-08T06:48:02.236Z,5.50
2022-11-08T06:50:30.641Z,5.50
2022-11-08T06:53:01.432Z,5.60
2022-11-08T06:55:28.870Z,5.60
2022-11-08T06:57:55.496Z,5.60
2022-11-08T07:00:22.523Z,5.60
2022-11-08T07:02:57.154Z,5.70
2022-11-08T07:05:24.346Z,5.80
2022-11-08T07:07:54.045Z,5.80
2022-11-08T07:10:22.581Z,5.90
2022-11-08T07:12:57.686Z,5.90
2022-11-08T07:15:24.349Z,5.90
2022-11-08T07:17:51.123Z,6.00
2022-11-08T07:20:18.127Z,6.00
2022-11-08T07:22:44.760Z,6.00
2022-11-08T07:25:11.380Z,6.10
2022-11-08T07:27:38.013Z,6.20
2022-11-08T07:30:05.960Z,6.20
2022-11-08T07:32:32.600Z,6.30
2022-11-08T07:34:59.243Z,6.40
2022-11-08T07:37:25.873Z,6.50
2022-11-08T07:39:52.511Z,6.60
2022-11-08T07:42:19.185Z,6.80
2022-11-08T07:44:45.835Z,6.90
2022-11-08T07:47:12.471Z,7.00
2022-11-08T07:49:39.075Z,7.10
2022-11-08T07:52:05.927Z,7.20
2022-11-08T07:54:32.555Z,7.40
2022-11-08T07:56:59.226Z,7.50
2022-11-08T07:59:25.860Z,7.50
2022-11-08T08:01:52.540Z,7.60
2022-11-08T08:04:19.225Z,7.60
2022-11-08T08:06:45.905Z,7.70
2022-11-08T08:09:12.535Z,7.80
2022-11-08T08:11:39.165Z,7.80
2022-11-08T08:14:05.784Z,7.90
2022-11-08T08:16:32.397Z,7.90
2022-11-08T08:18:59.034Z,8.00
2022-11-08T08:21:25.760Z,8.20
2022-11-08T08:23:52.386Z,8.30
2022-11-08T08:26:18.992Z,8.60
2022-11-08T08:28:45.613Z,8.80
2022-11-08T08:31:12.330Z,9.00
2022-11-08T08:33:39.302Z,9.30
2022-11-08T08:36:06.548Z,9.40
2022-11-08T08:38:33.988Z,9.40
2022-11-08T08:41:01.737Z,9.50
2022-11-08T08:43:29.775Z,9.60
2022-11-08T08:46:00.894Z,9.80
2022-11-08T08:48:28.173Z,9.90
2022-11-08T08:50:55.088Z,10.10
2022-11-08T08:53:22.162Z,10.20
2022-11-08T08:55:52.266Z,10.20
2022-11-08T08:58:20.180Z,10.30
2022-11-08T09:03:34.680Z,10.30
2022-11-08T09:06:01.933Z,10.30
2022-11-08T09:08:29.548Z,10.30
2022-11-08T09:10:58.461Z,10.30
2022-11-08T09:13:26.386Z,10.40
2022-11-08T09:15:54.176Z,10.60
2022-11-08T09:18:21.242Z,11.50
2022-11-08T09:20:48.162Z,13.90
2022-11-08T09:23:17.326Z,16.60
2022-11-08T09:25:44.260Z,18.80
2022-11-08T09:28:10.886Z,20.80
2022-11-08T09:30:37.682Z,22.60
2022-11-08T09:33:05.188Z,24.20
2022-11-08T09:35:31.918Z,26.00
2022-11-08T09:37:58.856Z,27.80
2022-11-08T09:40:55.786Z,29.10
2022-11-08T09:44:03.165Z,30.30
2022-11-08T09:46:50.974Z,31.10
2022-11-08T09:49:24.406Z,32.00
2022-11-08T09:51:51.534Z,32.00
2022-11-08T09:54:24.056Z,31.50
2022-11-08T09:56:52.781Z,31.50
2022-11-08T09:59:30.338Z,31.30
2022-11-08T10:01:57.078Z,30.50
2022-11-08T10:04:30.745Z,29.70
2022-11-08T10:07:29.626Z,29.70
2022-11-08T10:10:24.537Z,30.50
2022-11-08T10:13:22.663Z,31.80
2022-11-08T10:15:58.006Z,32.80
2022-11-08T10:18:45.825Z,34.00
2022-11-08T10:21:39.869Z,35.00
2022-11-08T10:24:25.137Z,35.20
2022-11-08T10:26:55.258Z,35.70
2022-11-08T10:29:29.298Z,35.90
2022-11-08T10:32:03.838Z,35.70
2022-11-08T10:34:39.519Z,36.20
2022-11-08T10:37:09.050Z,36.50
2022-11-08T10:39:42.639Z,36.60
2022-11-08T10:42:23.920Z,35.00
2022-11-08T10:44:50.649Z,34.70
2022-11-08T10:47:24.255Z,34.80
2022-11-08T10:49:52.252Z,34.70
2022-11-08T10:52:20.598Z,34.50
2022-11-08T10:54:58.230Z,34.80
2022-11-08T10:57:42.972Z,34.60
2022-11-08T11:00:21.874Z,35.00
2022-11-08T11:03:06.196Z,34.80
2022-11-08T11:05:40.481Z,34.30
2022-11-08T11:08:09.815Z,34.90
2022-11-08T11:10:44.799Z,35.20
2022-11-08T11:13:24.950Z,35.30
2022-11-08T11:15:58.330Z,33.60
2022-11-08T11:18:49.398Z,31.10
2022-11-08T11:21:21.897Z,28.60
2022-11-08T11:23:55.724Z,26.30
2022-11-08T11:26:47.875Z,25.30
2022-11-08T11:29:33.122Z,24.80
2022-11-08T11:32:21.590Z,24.30
2022-11-08T11:34:59.284Z,23.80
2022-11-08T11:37:45.295Z,23.50
2022-11-08T11:40:24.548Z,23.20
2022-11-08T11:43:05.466Z,23.00
2022-11-08T11:46:10.133Z,22.70
2022-11-08T11:48:44.327Z,22.70
2022-11-08T11:51:11.651Z,22.60
2022-11-08T11:53:41.719Z,22.90
2022-11-08T11:56:41.153Z,22.90
2022-11-08T11:59:08.231Z,22.80
2022-11-08T12:02:05.831Z,22.50
2022-11-08T12:05:10.282Z,22.40
2022-11-08T12:08:02.542Z,22.50
2022-11-08T12:11:15.722Z,22.50
2022-11-08T12:13:54.331Z,22.00
2022-11-08T12:16:50.388Z,21.40
2022-11-08T12:19:31.355Z,21.20
2022-11-08T12:22:21.667Z,21.10
2022-11-08T12:25:12.823Z,20.70
2022-11-08T12:27:52.317Z,20.20
2022-11-08T12:30:38.013Z,19.90
2022-11-08T12:33:10.610Z,19.70
2022-11-08T12:36:03.969Z,19.50
2022-11-08T12:39:09.622Z,19.30
2022-11-08T12:41:51.592Z,19.10
2022-11-08T12:44:36.602Z,19.40
2022-11-08T12:47:41.819Z,19.50
2022-11-08T12:50:30.454Z,20.40
2022-11-08T12:53:34.679Z,21.80
2022-11-08T12:56:03.946Z,22.60
2022-11-08T12:58:44.181Z,22.90
2022-11-08T13:01:16.456Z,23.60
2022-11-08T13:03:43.070Z,24.80
2022-11-08T13:06:30.256Z,25.00
2022-11-08T13:09:35.609Z,24.30
2022-11-08T13:12:23.857Z,23.90
2022-11-08T13:14:50.717Z,23.40
2022-11-08T13:17:19.031Z,22.90
2022-11-08T13:19:51.135Z,22.50
2022-11-08T13:22:30.135Z,21.90
2022-11-08T13:25:07.559Z,21.70
2022-11-08T13:27:36.942Z,21.20
2022-11-08T13:30:15.611Z,20.30
2022-11-08T13:33:04.122Z,19.50
2022-11-08T13:35:49.171Z,19.20
2022-11-08T13:38:35.325Z,19.40
2022-11-08T13:41:17.310Z,19.70
2022-11-08T13:43:44.514Z,19.90
2022-11-08T13:46:20.522Z,19.90
2022-11-08T13:49:03.434Z,19.70
2022-11-08T13:51:39.712Z,19.30
2022-11-08T13:54:21.607Z,19.00
2022-11-08T13:56:56.259Z,18.60
2022-11-08T13:59:32.221Z,18.40
2022-11-08T14:02:04.042Z,18.20
2022-11-08T14:04:34.775Z,17.90
2022-11-08T14:07:11.355Z,17.90
2022-11-08T14:10:16.830Z,17.70
2022-11-08T14:12:59.279Z,17.50
2022-11-08T14:15:35.568Z,17.40
2022-11-08T14:18:11.151Z,17.40
2022-11-08T14:20:43.433Z,17.30
2022-11-08T14:23:21.284Z,17.10
2022-11-08T14:26:00.105Z,17.10
2022-11-08T14:28:32.926Z,17.00
2022-11-08T14:31:01.488Z,17.00
2022-11-08T14:33:30.648Z,16.90
2022-11-08T14:36:08.168Z,16.90
2022-11-08T14:39:04.035Z,16.80
2022-11-08T14:41:33.236Z,16.80
2022-11-08T14:44:01.307Z,16.70
2022-11-08T14:46:32.374Z,16.70
2022-11-08T14:49:28.151Z,16.60
2022-11-08T14:52:33.092Z,16.60
2022-11-08T14:55:09.365Z,16.60
2022-11-08T14:57:41.230Z,16.60
2022-11-08T15:00:20.225Z,16.50
2022-11-08T15:02:56.379Z,16.50
2022-11-08T15:05:42.609Z,16.40
2022-11-08T15:08:24.711Z,16.40
2022-11-08T15:10:57.204Z,16.30
2022-11-08T15:13:25.519Z,16.30
2022-11-08T15:16:04.841Z,16.10
2022-11-08T15:18:36.290Z,16.10
2022-11-08T15:21:21.958Z,16.00
2022-11-08T15:23:51.084Z,16.00
2022-11-08T15:26:22.379Z,16.00
2022-11-08T15:29:18.245Z,15.90
2022-11-08T15:31:51.818Z,15.80
2022-11-08T15:34:37.167Z,15.70
2022-11-08T15:37:27.692Z,15.60
2022-11-08T15:39:55.423Z,15.50
2022-11-08T15:42:22.486Z,15.40
2022-11-08T15:44:59.268Z,15.30
2022-11-08T15:48:01.011Z,15.10
2022-11-08T15:50:30.431Z,15.10
2022-11-08T15:53:02.047Z,15.00
2022-11-08T15:55:31.603Z,15.00
2022-11-08T15:57:59.150Z,14.90
2022-11-08T16:00:28.586Z,14.90
2022-11-08T16:02:55.827Z,14.90
2022-11-08T16:05:25.192Z,15.00
2022-11-08T16:07:52.628Z,15.00
2022-11-08T16:10:31.936Z,15.00
2022-11-08T16:13:00.790Z,15.10
2022-11-08T16:15:30.261Z,15.10
2022-11-08T16:17:57.103Z,15.10
2022-11-08T16:20:34.628Z,15.10
2022-11-08T16:23:03.654Z,15.00
2022-11-08T16:25:34.947Z,15.00
2022-11-08T16:28:08.603Z,14.90
2022-11-08T16:30:35.557Z,14.90
2022-11-08T16:33:11.437Z,14.90
2022-11-08T16:35:38.070Z,14.80
2022-11-08T16:38:08.680Z,14.90
2022-11-08T16:40:35.372Z,14.90
2022-11-08T16:43:01.980Z,14.90
2022-11-08T16:45:58.457Z,14.80
2022-11-08T16:48:22.657Z,14.80
2022-11-08T16:50:49.533Z,14.80
2022-11-08T16:53:21.517Z,14.80
2022-11-08T16:55:48.198Z,14.90
2022-11-08T16:58:15.057Z,14.90
2022-11-08T17:00:44.228Z,14.90
2022-11-08T17:03:18.274Z,14.80
2022-11-08T17:05:44.937Z,14.90
2022-11-08T17:08:11.628Z,14.90
2022-11-08T17:10:38.342Z,14.80
2022-11-08T17:13:05.011Z,14.90
2022-11-08T17:15:31.848Z,14.90
2022-11-08T17:17:59.039Z,14.90
2022-11-08T17:20:26.383Z,14.90
2022-11-08T17:22:53.184Z,14.90
2022-11-08T17:25:22.394Z,14.90
2022-11-08T17:27:52.988Z,14.90
2022-11-08T17:30:25.412Z,14.90
2022-11-08T17:32:53.327Z,14.80
2022-11-08T17:35:20.106Z,14.80
2022-11-08T17:37:46.791Z,14.70
2022-11-08T17:40:13.434Z,14.60
2022-11-08T17:42:40.156Z,14.50
2022-11-08T17:45:09.836Z,14.50
2022-11-08T17:47:36.915Z,14.40
2022-11-08T17:50:04.287Z,14.40
2022-11-08T17:52:30.999Z,14.40
2022-11-08T17:54:57.689Z,14.50
2022-11-08T17:57:24.330Z,14.40
2022-11-08T17:59:50.981Z,14.50
2022-11-08T18:02:17.729Z,14.50
2022-11-08T18:04:44.384Z,14.40
2022-11-08T18:07:11.141Z,14.40
2022-11-08T18:09:38.085Z,14.40
2022-11-08T18:12:05.188Z,14.40
2022-11-08T18:14:32.005Z,14.40
2022-11-08T18:16:59.739Z,14.40
2022-11-08T18:19:26.515Z,14.40
2022-11-08T18:21:53.266Z,14.40
2022-11-08T18:24:20.151Z,14.40
2022-11-08T18:26:46.809Z,14.40
2022-11-08T18:29:13.495Z,14.40
2022-11-08T18:31:40.129Z,14.40
2022-11-08T18:34:06.776Z,14.40
2022-11-08T18:36:33.450Z,14.40
2022-11-08T18:39:00.888Z,14.40
2022-11-08T18:41:29.900Z,14.30
2022-11-08T18:43:58.560Z,14.30
2022-11-08T18:46:27.635Z,14.40
2022-11-08T18:48:54.638Z,14.40
2022-11-08T18:51:22.649Z,14.30
2022-11-08T18:53:49.882Z,14.20
2022-11-08T18:56:16.533Z,14.20
2022-11-08T18:58:44.806Z,14.10
2022-11-08T19:01:11.486Z,14.10
2022-11-08T19:03:38.600Z,14.10
2022-11-08T19:06:05.646Z,14.10
2022-11-08T19:08:32.731Z,14.10
2022-11-08T19:11:03.040Z,14.10
2022-11-08T19:13:32.340Z,14.10
2022-11-08T19:16:00.135Z,14.10
2022-11-08T19:18:27.934Z,14.20
2022-11-08T19:21:06.651Z,14.30
2022-11-08T19:23:34.526Z,14.30
2022-11-08T19:26:04.600Z,14.20
2022-11-08T19:28:37.118Z,14.20
2022-11-08T19:31:04.488Z,14.20
2022-11-08T19:33:32.725Z,14.20
2022-11-08T19:36:08.322Z,14.10
2022-11-08T19:38:36.448Z,14.10
2022-11-08T19:41:08.588Z,14.20
2022-11-08T19:43:36.325Z,14.20
2022-11-08T19:46:05.843Z,14.30
2022-11-08T19:48:35.775Z,14.30
2022-11-08T19:51:04.582Z,14.30
2022-11-08T19:53:32.032Z,14.30
2022-11-08T19:56:03.748Z,14.20
2022-11-08T19:58:32.850Z,14.20
2022-11-08T20:01:08.841Z,14.20
2022-11-08T20:03:35.747Z,14.10
2022-11-08T20:06:02.427Z,14.10
2022-11-08T20:08:29.053Z,14.10
2022-11-08T20:10:55.674Z,14.10
2022-11-08T20:13:22.358Z,14.00
2022-11-08T20:15:49.009Z,14.00
2022-11-08T20:18:16.197Z,14.10
2022-11-08T20:20:44.307Z,14.10
2022-11-08T20:23:16.089Z,14.20
2022-11-08T20:25:43.008Z,14.20
2022-11-08T20:28:09.646Z,14.20
2022-11-08T20:30:36.394Z,14.20
2022-11-08T20:33:03.041Z,14.20
2022-11-08T20:35:29.679Z,14.20
2022-11-08T20:37:57.181Z,14.10
2022-11-08T20:40:23.845Z,14.20
2022-11-08T20:42:50.462Z,14.20
2022-11-08T20:45:17.176Z,14.30
2022-11-08T20:47:43.795Z,14.30
2022-11-08T20:50:11.009Z,14.40
2022-11-08T20:52:37.652Z,14.40
2022-11-08T20:55:04.539Z,14.40
2022-11-08T20:57:31.171Z,14.40
2022-11-08T21:00:07.016Z,14.40
2022-11-08T21:02:39.337Z,14.50
2022-11-08T21:05:06.462Z,14.40
2022-11-08T21:08:02.053Z,14.30
2022-11-08T21:10:41.740Z,14.30
2022-11-08T21:13:06.514Z,14.30
2022-11-08T21:15:33.170Z,14.20
2022-11-08T21:17:59.767Z,14.20
2022-11-08T21:20:26.829Z,14.20
2022-11-08T21:22:53.469Z,14.20
2022-11-08T21:25:21.196Z,14.20
2022-11-08T21:27:47.810Z,14.10
2022-11-08T21:30:14.465Z,14.10
2022-11-08T21:32:41.095Z,14.20
2022-11-08T21:35:08.114Z,14.20
2022-11-08T21:37:34.792Z,14.20
2022-11-08T21:40:01.442Z,14.30
2022-11-08T21:42:28.108Z,14.30
2022-11-08T21:44:54.740Z,14.30
2022-11-08T21:47:21.464Z,14.30
2022-11-08T21:49:48.208Z,14.40
2022-11-08T21:52:14.836Z,14.40
2022-11-08T21:54:41.476Z,14.40
2022-11-08T21:57:08.158Z,14.40
2022-11-08T21:59:34.790Z,14.40
2022-11-08T22:02:01.546Z,14.40
2022-11-08T22:04:28.148Z,14.40
2022-11-08T22:06:54.891Z,14.40
2022-11-08T22:09:21.657Z,14.30
2022-11-08T22:11:48.474Z,14.30
2022-11-08T22:14:15.398Z,14.30
2022-11-08T22:16:42.075Z,14.20
2022-11-08T22:19:09.721Z,14.10
2022-11-08T22:21:40.002Z,14.00
2022-11-08T22:24:12.698Z,14.00
2022-11-08T22:26:40.841Z,13.90
2022-11-08T22:29:07.742Z,13.90
2022-11-08T22:31:34.538Z,13.90
2022-11-08T22:34:02.067Z,14.00
2022-11-08T22:36:29.056Z,14.00
2022-11-08T22:38:55.967Z,14.00
2022-11-08T22:41:23.322Z,14.10
2022-11-08T22:43:50.576Z,14.10
2022-11-08T22:46:17.473Z,14.00
2022-11-08T22:48:44.377Z,14.00
2022-11-08T22:51:11.512Z,14.00
2022-11-08T22:53:38.908Z,14.00
2022-11-08T22:56:10.820Z,14.00
2022-11-08T22:58:38.216Z,14.00
2022-11-08T23:01:05.197Z,14.00
2022-11-08T23:03:31.845Z,14.00
2022-11-08T23:05:58.510Z,14.00
2022-11-08T23:08:26.356Z,14.00
2022-11-08T23:11:11.784Z,14.00
2022-11-08T23:13:58.779Z,13.90
2022-11-08T23:16:37.899Z,13.90
2022-11-08T23:19:29.078Z,14.00
2022-11-08T23:22:14.523Z,14.10
2022-11-08T23:24:42.838Z,14.10
2022-11-08T23:27:29.128Z,14.20
2022-11-08T23:30:14.531Z,14.20
2022-11-08T23:32:46.220Z,14.30
2022-11-08T23:35:13.757Z,14.30
2022-11-08T23:37:40.628Z,14.30
2022-11-08T23:40:27.473Z,14.40
2022-11-08T23:43:23.855Z,14.30
2022-11-08T23:45:51.268Z,14.20
2022-11-08T23:48:18.159Z,14.00
2022-11-08T23:50:52.762Z,14.00
2022-11-08T23:53:21.080Z,13.90
2022-11-08T23:55:48.096Z,13.90
2022-11-08T23:58:15.040Z,13.90
